Time;durP1;ratioP1;P1;durP2;ratioP2;P2;SDS_P1;SDS_P2;PMS_P1;PMS_P2;Temp;Humidity;BMP_temperature;BMP_pressure;BME280_temperature;BME280_humidity;BME280_pressure;Samples;Min_cycle;Max_cycle;Signal;HPM_P1;HPM_P2
2022/08/15 00:00:33;;;;;;;12.40;10.98;;;20.30;95.10;;;;;;5037089;28;20087;-59
2022/08/15 00:02:58;;;;;;;15.55;10.85;;;20.20;95.20;;;;;;5034862;28;20044;-60
2022/08/15 00:05:24;;;;;;;12.10;10.75;;;20.20;95.40;;;;;;5041329;28;20354;-60
2022/08/15 00:07:50;;;;;;;13.30;11.32;;;20.20;95.60;;;;;;5033787;28;20075;-59
2022/08/15 00:10:19;;;;;;;12.73;10.60;;;20.20;95.60;;;;;;5037780;28;20064;-60
2022/08/15 00:12:45;;;;;;;12.73;10.18;;;20.20;95.60;;;;;;5040196;28;20033;-60
2022/08/15 00:15:15;;;;;;;15.40;11.40;;;20.20;95.60;;;;;;5035701;28;20650;-59
2022/08/15 00:17:42;;;;;;;13.98;11.27;;;20.10;95.60;;;;;;5032611;28;20087;-60
2022/08/15 00:20:10;;;;;;;13.60;11.10;;;20.20;95.60;;;;;;5045822;28;20040;-59
2022/08/15 00:22:42;;;;;;;14.60;12.13;;;20.20;95.90;;;;;;5043722;28;20106;-59
2022/08/15 00:25:08;;;;;;;15.02;11.27;;;20.10;95.60;;;;;;5049055;28;20035;-60
2022/08/15 00:27:33;;;;;;;13.30;10.52;;;20.10;95.80;;;;;;5036095;28;20034;-59
2022/08/15 00:30:02;;;;;;;12.85;10.48;;;20.10;95.80;;;;;;5035981;28;20069;-60
2022/08/15 00:32:28;;;;;;;13.43;10.40;;;20.20;95.90;;;;;;5038975;28;20075;-60
2022/08/15 00:34:53;;;;;;;15.02;10.65;;;20.20;95.90;;;;;;5042400;28;20065;-60
2022/08/15 00:37:19;;;;;;;14.65;10.45;;;20.10;96.00;;;;;;5038527;28;20037;-59
2022/08/15 00:39:45;;;;;;;15.80;11.20;;;20.10;96.10;;;;;;5037202;28;20037;-59
2022/08/15 00:42:11;;;;;;;13.00;10.38;;;20.00;96.30;;;;;;5044866;28;20106;-60
2022/08/15 00:44:41;;;;;;;15.68;10.85;;;20.00;96.40;;;;;;5043741;28;20554;-59
2022/08/15 00:47:15;;;;;;;13.48;10.40;;;20.10;96.50;;;;;;5046791;28;20468;-60
2022/08/15 00:49:43;;;;;;;12.32;10.65;;;20.00;96.60;;;;;;5047594;28;20044;-59
2022/08/15 00:52:13;;;;;;;15.98;10.82;;;20.00;96.60;;;;;;5046240;28;20053;-59
2022/08/15 00:54:54;;;;;;;15.63;11.60;;;19.90;96.90;;;;;;5040621;28;20035;-59
2022/08/15 00:57:41;;;;;;;15.02;11.52;;;19.90;97.40;;;;;;5047111;28;20439;-59
2022/08/15 01:00:22;;;;;;;16.23;11.95;;;19.70;97.20;;;;;;5037993;28;20069;-59
2022/08/15 01:02:49;;;;;;;14.40;12.27;;;19.70;97.90;;;;;;5032256;28;20092;-60
2022/08/15 01:05:16;;;;;;;17.73;12.07;;;19.70;97.50;;;;;;5037004;28;20048;-60
2022/08/15 01:07:43;;;;;;;14.57;12.05;;;19.70;97.60;;;;;;5045937;28;20041;-58
2022/08/15 01:10:09;;;;;;;15.57;11.15;;;19.70;97.70;;;;;;5031718;28;20076;-60
2022/08/15 01:12:37;;;;;;;17.17;11.75;;;19.70;97.60;;;;;;5039679;28;20041;-59
2022/08/15 01:15:08;;;;;;;17.13;11.88;;;19.80;97.70;;;;;;5034903;28;20114;-59
2022/08/15 01:17:34;;;;;;;17.92;12.05;;;19.70;97.90;;;;;;5032476;28;20069;-59
2022/08/15 01:20:20;;;;;;;19.58;11.55;;;19.70;97.80;;;;;;5035733;28;20033;-59
2022/08/15 01:23:19;;;;;;;18.80;10.68;;;19.70;98.10;;;;;;5045697;28;20048;-58
2022/08/15 01:25:52;;;;;;;14.82;10.95;;;19.70;98.30;;;;;;5049932;28;20037;-59
2022/08/15 01:28:19;;;;;;;15.70;11.93;;;19.70;98.00;;;;;;5039738;28;20179;-60
2022/08/15 01:30:54;;;;;;;16.17;11.90;;;19.70;98.10;;;;;;5047060;28;20051;-59
2022/08/15 01:33:21;;;;;;;20.17;12.63;;;19.70;98.40;;;;;;5044105;28;20049;-60
2022/08/15 01:35:48;;;;;;;17.35;12.20;;;19.70;98.40;;;;;;5041189;28;20037;-59
2022/08/15 01:38:23;;;;;;;17.88;12.50;;;19.70;98.40;;;;;;5049945;28;20041;-59
2022/08/15 01:41:04;;;;;;;17.38;12.23;;;19.70;98.60;;;;;;5037543;28;20045;-60
2022/08/15 01:43:36;;;;;;;15.80;11.68;;;19.70;98.60;;;;;;5045724;28;20049;-58
2022/08/15 01:46:07;;;;;;;15.45;11.98;;;19.80;98.50;;;;;;5047125;28;20078;-59
2022/08/15 01:48:45;;;;;;;14.75;12.02;;;19.80;98.40;;;;;;5049520;28;20040;-59
2022/08/15 01:51:12;;;;;;;15.95;12.32;;;19.80;98.60;;;;;;5049429;28;20037;-60
2022/08/15 01:54:01;;;;;;;16.35;11.95;;;19.80;98.30;;;;;;5034554;28;20048;-59
2022/08/15 01:56:33;;;;;;;14.90;11.68;;;19.90;98.60;;;;;;5041105;28;20048;-59
2022/08/15 01:59:02;;;;;;;16.73;12.52;;;19.90;98.70;;;;;;5043917;28;20080;-60
2022/08/15 02:01:49;;;;;;;17.27;13.00;;;19.90;98.40;;;;;;5047020;28;20076;-60
2022/08/15 02:04:18;;;;;;;16.70;12.07;;;19.90;98.40;;;;;;5045897;28;20049;-59
2022/08/15 02:06:44;;;;;;;17.20;11.85;;;19.90;98.20;;;;;;5042457;28;20036;-59
2022/08/15 02:09:17;;;;;;;15.82;12.65;;;19.90;98.30;;;;;;5047892;28;20383;-59
2022/08/15 02:11:44;;;;;;;14.07;11.43;;;19.90;98.30;;;;;;5048464;28;20129;-59
2022/08/15 02:14:11;;;;;;;14.70;11.50;;;20.00;98.30;;;;;;5037810;28;20120;-60
2022/08/15 02:16:38;;;;;;;16.58;12.60;;;20.00;98.30;;;;;;5046166;28;20072;-59
2022/08/15 02:19:07;;;;;;;16.40;11.80;;;20.10;98.20;;;;;;5036143;28;20138;-59
2022/08/15 02:21:34;;;;;;;15.48;11.85;;;20.10;98.20;;;;;;5039344;28;20045;-60
2022/08/15 02:24:00;;;;;;;14.57;11.77;;;20.00;98.30;;;;;;5045168;28;20120;-60
2022/08/15 02:26:26;;;;;;;16.85;11.23;;;20.10;98.30;;;;;;5038847;28;20423;-58
2022/08/15 02:28:52;;;;;;;16.58;12.07;;;20.10;98.40;;;;;;5039999;28;20033;-60
2022/08/15 02:31:21;;;;;;;17.00;12.13;;;20.10;98.50;;;;;;5047429;28;20056;-60
2022/08/15 02:33:54;;;;;;;17.63;13.30;;;20.10;98.60;;;;;;5048453;28;20125;-60
2022/08/15 02:36:20;;;;;;;14.52;12.50;;;20.00;98.50;;;;;;5043443;28;20063;-60
2022/08/15 02:38:49;;;;;;;16.60;12.75;;;20.00;98.50;;;;;;5050639;28;20420;-58
2022/08/15 02:41:20;;;;;;;14.85;11.85;;;20.00;98.40;;;;;;5047169;28;20087;-60
2022/08/15 02:43:46;;;;;;;15.90;12.48;;;20.00;98.40;;;;;;5041048;28;20092;-59
2022/08/15 02:46:16;;;;;;;17.80;13.52;;;20.00;98.40;;;;;;5044573;28;20216;-60
2022/08/15 02:48:43;;;;;;;18.48;13.77;;;19.90;98.40;;;;;;5038968;28;20071;-60
2022/08/15 02:51:11;;;;;;;16.65;12.35;;;19.90;98.40;;;;;;5050380;28;20492;-59
2022/08/15 02:53:37;;;;;;;16.45;12.55;;;19.90;98.40;;;;;;5033580;28;20394;-60
2022/08/15 02:56:06;;;;;;;17.48;12.85;;;19.80;98.40;;;;;;5041792;28;20099;-59
2022/08/15 02:58:33;;;;;;;17.98;13.93;;;19.80;98.40;;;;;;5049601;28;20071;-59
2022/08/15 03:00:58;;;;;;;16.85;13.50;;;19.70;98.40;;;;;;5045706;28;20581;-60
2022/08/15 03:03:26;;;;;;;18.58;14.95;;;19.70;98.40;;;;;;5036184;28;20170;-59
2022/08/15 03:05:52;;;;;;;15.85;13.25;;;19.70;98.40;;;;;;5045119;28;20041;-59
2022/08/15 03:08:19;;;;;;;16.10;12.50;;;19.70;98.50;;;;;;5049764;28;20539;-59
2022/08/15 03:10:45;;;;;;;16.73;13.10;;;19.70;98.50;;;;;;5040770;28;20851;-59
2022/08/15 03:13:13;;;;;;;16.83;13.40;;;19.60;98.50;;;;;;5050710;28;20120;-59
2022/08/15 03:15:54;;;;;;;17.60;13.85;;;19.50;98.60;;;;;;5044002;28;20040;-59
2022/08/15 03:18:21;;;;;;;16.35;13.15;;;19.50;98.80;;;;;;5043270;28;20076;-59
2022/08/15 03:20:51;;;;;;;18.00;14.32;;;19.40;98.80;;;;;;5044811;28;20038;-58
2022/08/15 03:23:18;;;;;;;16.10;13.70;;;19.30;98.90;;;;;;5029063;28;20036;-58
2022/08/15 03:25:48;;;;;;;17.00;13.10;;;19.20;98.90;;;;;;5045582;28;20095;-58
2022/08/15 03:28:15;;;;;;;;;;;19.20;99.10;;;;;;5038893;28;20041;-58
2022/08/15 03:30:41;;;;;;;19.48;14.20;;;19.10;99.10;;;;;;5048132;28;19939;-59
2022/08/15 03:33:07;;;;;;;18.42;13.38;;;19.10;99.00;;;;;;5043004;28;20124;-59
2022/08/15 03:35:40;;;;;;;18.30;14.85;;;19.10;99.10;;;;;;5044712;28;20132;-59
2022/08/15 03:38:06;;;;;;;18.95;14.63;;;19.00;99.30;;;;;;5045440;28;20076;-59
2022/08/15 03:40:33;;;;;;;16.13;13.32;;;19.10;99.40;;;;;;5047625;28;20069;-59
2022/08/15 03:43:03;;;;;;;17.27;13.65;;;19.00;99.50;;;;;;5044646;28;20041;-60
2022/08/15 03:45:29;;;;;;;17.63;13.05;;;19.00;99.70;;;;;;5040738;28;20370;-59
2022/08/15 03:47:55;;;;;;;19.15;13.90;;;18.90;99.60;;;;;;5044312;28;20116;-59
2022/08/15 03:50:21;;;;;;;16.77;14.02;;;18.90;99.70;;;;;;5035414;28;20457;-59
2022/08/15 03:52:59;;;;;;;18.88;14.38;;;18.90;99.80;;;;;;5039483;28;20369;-59
2022/08/15 03:55:28;;;;;;;19.45;13.20;;;18.90;99.90;;;;;;5033288;28;20038;-59
2022/08/15 03:57:55;;;;;;;17.90;13.13;;;18.80;99.90;;;;;;5033856;28;20056;-59
2022/08/15 04:00:27;;;;;;;17.63;12.98;;;18.80;99.90;;;;;;5036793;28;20042;-59
2022/08/15 04:03:02;;;;;;;17.45;13.40;;;18.80;99.90;;;;;;5039323;28;20045;-60
2022/08/15 04:05:28;;;;;;;17.98;13.05;;;18.80;99.90;;;;;;5029640;28;20041;-58
2022/08/15 04:07:54;;;;;;;17.67;14.23;;;18.80;99.90;;;;;;5040952;28;20079;-60
2022/08/15 04:10:20;;;;;;;20.77;14.10;;;18.80;99.90;;;;;;5039898;28;20426;-58
2022/08/15 04:12:47;;;;;;;15.80;12.82;;;18.70;99.90;;;;;;5037349;28;20527;-58
2022/08/15 04:15:15;;;;;;;18.98;13.63;;;18.70;99.90;;;;;;5041381;28;20057;-60
2022/08/15 04:17:42;;;;;;;17.38;13.48;;;18.60;99.90;;;;;;5035322;28;20393;-59
2022/08/15 04:20:10;;;;;;;19.17;13.73;;;18.70;99.90;;;;;;5036373;28;20037;-60
2022/08/15 04:22:43;;;;;;;17.95;13.73;;;18.70;99.90;;;;;;5041741;28;20081;-60
2022/08/15 04:25:18;;;;;;;18.95;13.10;;;18.70;99.90;;;;;;5048498;28;20043;-59
2022/08/15 04:27:46;;;;;;;17.27;13.38;;;18.70;99.90;;;;;;5035268;28;20047;-60
2022/08/15 04:30:12;;;;;;;16.88;12.82;;;18.70;99.90;;;;;;5037912;28;20044;-59
2022/08/15 04:32:39;;;;;;;16.88;12.60;;;18.60;99.90;;;;;;5042803;28;20033;-58
2022/08/15 04:35:08;;;;;;;18.02;13.10;;;18.60;99.90;;;;;;5039876;28;20037;-60
2022/08/15 04:37:36;;;;;;;24.77;13.52;;;18.60;99.90;;;;;;5037127;28;20069;-59
2022/08/15 04:40:03;;;;;;;15.82;12.40;;;18.70;99.90;;;;;;5045621;28;20047;-59
2022/08/15 04:42:28;;;;;;;17.52;12.80;;;18.70;99.90;;;;;;5048809;28;20094;-59
2022/08/15 04:44:54;;;;;;;17.73;12.63;;;18.80;99.90;;;;;;5045322;28;20041;-60
2022/08/15 04:47:21;;;;;;;18.95;13.02;;;18.80;99.90;;;;;;5032574;28;20048;-59
2022/08/15 04:49:46;;;;;;;21.10;14.23;;;18.90;99.90;;;;;;5028316;28;20121;-59
2022/08/15 04:52:19;;;;;;;19.08;13.52;;;19.00;99.90;;;;;;5035023;28;20599;-60
2022/08/15 04:54:45;;;;;;;19.92;13.65;;;19.10;99.90;;;;;;5038692;28;20041;-60
2022/08/15 04:57:12;;;;;;;17.58;12.57;;;19.20;99.90;;;;;;5037209;28;20107;-59
2022/08/15 04:59:39;;;;;;;18.10;13.65;;;19.30;99.90;;;;;;5044717;28;20072;-60
2022/08/15 05:02:08;;;;;;;17.75;12.63;;;19.30;99.80;;;;;;5041522;28;20128;-59
2022/08/15 05:04:34;;;;;;;17.15;12.63;;;19.40;99.90;;;;;;5044882;28;20090;-60
2022/08/15 05:07:00;;;;;;;19.65;13.20;;;19.40;99.70;;;;;;5036589;28;20120;-58
2022/08/15 05:09:26;;;;;;;21.10;12.63;;;19.40;99.60;;;;;;5048212;28;20121;-59
2022/08/15 05:11:51;;;;;;;19.02;13.35;;;19.50;99.40;;;;;;5041487;28;20047;-60
2022/08/15 05:14:17;;;;;;;22.33;13.30;;;19.60;99.40;;;;;;5033644;28;20040;-59
2022/08/15 05:16:43;;;;;;;21.52;13.38;;;19.70;99.30;;;;;;5033405;28;20052;-59
2022/08/15 05:19:08;;;;;;;21.67;13.75;;;19.70;99.30;;;;;;5029921;28;20105;-59
2022/08/15 05:21:34;;;;;;;20.27;13.85;;;19.80;99.10;;;;;;5038971;28;20042;-60
2022/08/15 05:24:00;;;;;;;23.65;13.82;;;19.80;99.00;;;;;;5042002;28;20033;-59
2022/08/15 05:26:26;;;;;;;21.50;13.05;;;19.90;98.90;;;;;;5038677;28;21182;-59
2022/08/15 05:28:52;;;;;;;21.58;14.63;;;19.90;98.70;;;;;;5040467;28;20440;-60
2022/08/15 05:31:17;;;;;;;23.83;14.05;;;20.00;98.60;;;;;;5048109;28;20052;-59
2022/08/15 05:33:45;;;;;;;19.73;13.40;;;20.00;98.40;;;;;;5038772;28;20041;-59
2022/08/15 05:36:13;;;;;;;19.73;13.88;;;20.10;98.20;;;;;;5041999;28;20128;-59
2022/08/15 05:38:46;;;;;;;19.75;14.18;;;20.10;98.00;;;;;;5043985;28;20029;-60
2022/08/15 05:41:32;;;;;;;18.20;14.40;;;20.10;97.90;;;;;;5032022;28;20053;-60
2022/08/15 05:44:25;;;;;;;18.85;14.13;;;20.20;98.00;;;;;;5036777;28;20083;-59
2022/08/15 05:47:13;;;;;;;19.13;14.00;;;20.20;97.50;;;;;;5032131;28;20484;-59
2022/08/15 05:49:53;;;;;;;23.33;15.25;;;20.30;97.30;;;;;;5033935;28;20041;-60
2022/08/15 05:52:30;;;;;;;18.90;13.90;;;20.30;97.20;;;;;;5040646;28;20538;-60
2022/08/15 05:55:15;;;;;;;19.25;14.02;;;20.30;97.00;;;;;;5042104;28;20389;-59
2022/08/15 05:58:20;;;;;;;17.45;13.75;;;20.40;97.10;;;;;;5034999;28;20045;-59
2022/08/15 06:01:12;;;;;;;18.30;13.25;;;20.40;96.80;;;;;;5041844;28;20049;-59
2022/08/15 06:03:43;;;;;;;19.73;13.15;;;20.40;96.80;;;;;;5028782;28;20562;-60
2022/08/15 06:06:12;;;;;;;17.20;13.68;;;20.50;96.70;;;;;;5045463;28;20037;-60
2022/08/15 06:08:46;;;;;;;17.48;13.00;;;20.50;97.00;;;;;;5045486;28;20461;-59
2022/08/15 06:11:35;;;;;;;18.20;14.13;;;20.60;96.70;;;;;;5039405;28;20044;-59
2022/08/15 06:14:16;;;;;;;20.50;14.10;;;20.60;96.60;;;;;;5033855;28;20052;-60
2022/08/15 06:16:56;;;;;;;18.50;13.23;;;20.70;96.90;;;;;;5042523;28;20042;-59
2022/08/15 06:19:34;;;;;;;20.30;13.80;;;20.80;96.90;;;;;;5032427;28;20432;-59
2022/08/15 06:22:09;;;;;;;19.23;13.98;;;20.90;97.10;;;;;;5033229;28;20350;-60
2022/08/15 06:24:53;;;;;;;20.05;14.30;;;20.90;97.20;;;;;;5045044;28;20040;-59
2022/08/15 06:27:57;;;;;;;21.83;14.35;;;21.10;96.70;;;;;;5038513;28;20049;-60
2022/08/15 06:30:31;;;;;;;23.50;13.77;;;21.20;96.00;;;;;;5041382;28;20607;-60
2022/08/15 06:33:21;;;;;;;16.95;12.63;;;21.30;95.80;;;;;;5036331;28;20104;-60
2022/08/15 06:36:00;;;;;;;20.92;14.02;;;21.30;95.50;;;;;;5035353;28;20137;-60
2022/08/15 06:39:01;;;;;;;20.97;13.47;;;21.40;95.30;;;;;;5045562;28;20476;-59
2022/08/15 06:41:38;;;;;;;17.08;13.30;;;21.50;95.20;;;;;;5041367;28;20072;-60
2022/08/15 06:44:05;;;;;;;21.65;13.45;;;21.50;95.10;;;;;;5043095;28;20072;-59
2022/08/15 06:46:33;;;;;;;18.88;13.48;;;21.60;95.40;;;;;;5037407;28;20045;-60
2022/08/15 06:49:07;;;;;;;17.77;12.73;;;21.70;95.20;;;;;;5042788;28;20056;-60
2022/08/15 06:51:36;;;;;;;20.92;14.20;;;21.70;95.00;;;;;;5033280;28;20704;-60
2022/08/15 06:54:02;;;;;;;23.02;15.65;;;21.80;94.70;;;;;;5034033;28;20045;-59
2022/08/15 06:56:33;;;;;;;19.45;13.80;;;21.80;94.60;;;;;;5035828;28;20041;-60
2022/08/15 06:59:27;;;;;;;21.55;14.10;;;21.80;94.30;;;;;;5038132;28;20052;-59
2022/08/15 07:02:21;;;;;;;16.02;12.65;;;21.80;94.00;;;;;;5022099;28;20497;-60
2022/08/15 07:05:13;;;;;;;19.40;14.40;;;21.90;93.80;;;;;;5028577;28;20037;-59
2022/08/15 07:07:47;;;;;;;21.13;15.52;;;22.10;93.70;;;;;;5038934;28;20067;-61
2022/08/15 07:10:27;;;;;;;21.60;16.30;;;22.20;93.50;;;;;;5041456;28;20044;-61
2022/08/15 07:13:04;;;;;;;23.30;17.23;;;22.40;93.40;;;;;;5046099;28;20766;-60
2022/08/15 07:15:44;;;;;;;22.35;17.33;;;22.50;93.10;;;;;;5052667;28;20292;-60
2022/08/15 07:18:39;;;;;;;21.58;17.02;;;22.50;93.30;;;;;;5038507;28;20811;-59
2022/08/15 07:21:13;;;;;;;23.38;17.27;;;22.60;93.40;;;;;;5029589;28;20385;-59
2022/08/15 07:24:06;;;;;;;21.42;14.90;;;22.60;93.40;;;;;;5041995;28;20509;-60
2022/08/15 07:26:59;;;;;;;19.50;14.95;;;22.80;93.60;;;;;;5040818;28;20037;-60
2022/08/15 07:29:36;;;;;;;18.50;13.65;;;22.90;93.20;;;;;;5049792;28;20033;-59
2022/08/15 07:32:20;;;;;;;16.33;13.20;;;23.10;92.60;;;;;;5033323;28;20056;-59
2022/08/15 07:35:04;;;;;;;19.00;12.82;;;23.20;92.00;;;;;;5040284;28;20037;-59
2022/08/15 07:37:34;;;;;;;14.45;12.15;;;23.40;91.50;;;;;;5034394;28;20039;-60
2022/08/15 07:40:21;;;;;;;17.80;13.50;;;23.50;91.40;;;;;;5034683;28;20041;-60
2022/08/15 07:42:48;;;;;;;14.77;11.80;;;23.60;90.80;;;;;;5038004;28;20041;-59
2022/08/15 07:45:24;;;;;;;20.55;13.00;;;23.70;90.60;;;;;;5034605;28;20495;-59
2022/08/15 07:48:23;;;;;;;18.00;11.73;;;23.80;90.00;;;;;;5039381;28;20408;-59
2022/08/15 07:51:14;;;;;;;14.98;12.05;;;23.90;88.40;;;;;;5037012;28;20346;-60
2022/08/15 07:53:50;;;;;;;14.73;12.38;;;24.00;87.90;;;;;;5036480;28;20038;-60
2022/08/15 07:56:16;;;;;;;15.52;11.75;;;24.20;87.10;;;;;;5034736;28;20041;-60
2022/08/15 07:58:43;;;;;;;16.67;11.27;;;24.30;87.60;;;;;;5050031;28;20044;-61
2022/08/15 08:01:24;;;;;;;15.00;11.48;;;24.40;87.50;;;;;;5040690;28;20098;-61
2022/08/15 08:04:15;;;;;;;20.10;10.80;;;24.60;85.20;;;;;;5033170;28;20045;-61
2022/08/15 08:06:49;;;;;;;13.73;10.70;;;24.90;82.60;;;;;;5038304;28;20041;-61
2022/08/15 08:09:46;;;;;;;12.45;10.63;;;25.10;83.40;;;;;;5038750;28;20037;-61
2022/08/15 08:12:36;;;;;;;11.48;10.23;;;25.40;82.50;;;;;;5035267;28;20095;-61
2022/08/15 08:15:10;;;;;;;11.13;9.35;;;25.60;80.60;;;;;;5040108;28;20032;-61
2022/08/15 08:17:52;;;;;;;12.57;9.40;;;25.80;80.90;;;;;;5049792;28;20037;-60
2022/08/15 08:20:49;;;;;;;10.95;8.73;;;26.00;80.10;;;;;;5039120;28;20044;-61
2022/08/15 08:23:29;;;;;;;10.10;8.73;;;26.20;78.30;;;;;;5032302;28;20046;-62
2022/08/15 08:26:15;;;;;;;10.85;8.65;;;26.20;75.80;;;;;;5035541;28;20024;-62
2022/08/15 08:28:56;;;;;;;11.93;10.07;;;26.10;76.00;;;;;;5038100;28;20043;-61
2022/08/15 08:31:28;;;;;;;13.05;9.05;;;26.10;75.20;;;;;;5033747;28;20470;-61
2022/08/15 08:34:15;;;;;;;11.43;8.93;;;26.20;75.90;;;;;;5039942;28;20098;-61
2022/08/15 08:37:10;;;;;;;11.50;8.35;;;26.40;74.60;;;;;;5045924;28;20037;-62
2022/08/15 08:39:54;;;;;;;9.13;7.68;;;26.60;73.20;;;;;;5033858;28;20112;-61
2022/08/15 08:42:22;;;;;;;8.93;8.02;;;26.60;73.70;;;;;;5036702;28;20128;-62
2022/08/15 08:44:59;;;;;;;11.27;7.65;;;26.90;71.80;;;;;;5047385;28;20040;-62
2022/08/15 08:47:32;;;;;;;12.60;7.95;;;27.10;69.70;;;;;;5036596;28;20524;-62
2022/08/15 08:50:09;;;;;;;8.63;7.60;;;27.70;69.80;;;;;;5039308;28;20037;-63
2022/08/15 08:52:40;;;;;;;14.02;7.63;;;28.40;65.40;;;;;;5031024;28;20110;-61
2022/08/15 08:55:18;;;;;;;9.93;7.20;;;29.00;65.20;;;;;;5042318;28;20516;-61
2022/08/15 08:57:52;;;;;;;7.75;6.97;;;29.50;62.50;;;;;;5032976;28;20544;-61
2022/08/15 09:00:20;;;;;;;7.65;6.95;;;29.50;61.90;;;;;;5031932;28;20062;-62
2022/08/15 09:02:59;;;;;;;8.40;7.57;;;29.10;62.00;;;;;;5030011;28;20076;-61
2022/08/15 09:05:42;;;;;;;10.90;8.27;;;28.70;62.40;;;;;;5043833;28;20030;-62
2022/08/15 09:08:18;;;;;;;8.13;6.97;;;29.00;62.40;;;;;;5030103;28;20362;-62
2022/08/15 09:10:48;;;;;;;10.75;7.60;;;29.40;61.30;;;;;;5032663;28;20041;-61
2022/08/15 09:13:34;;;;;;;8.75;6.80;;;30.00;60.70;;;;;;5043008;28;20052;-62
2022/08/15 09:16:14;;;;;;;7.43;6.72;;;30.60;59.00;;;;;;5041705;28;20045;-61
2022/08/15 09:19:01;;;;;;;7.30;6.40;;;31.00;57.90;;;;;;5032618;28;20656;-62
2022/08/15 09:21:27;;;;;;;6.70;5.93;;;31.40;56.10;;;;;;5031144;28;20037;-62
2022/08/15 09:23:54;;;;;;;7.22;6.57;;;31.80;56.30;;;;;;5033138;28;20045;-61
2022/08/15 09:26:29;;;;;;;7.15;5.90;;;32.20;55.10;;;;;;5041870;28;20037;-61
2022/08/15 09:29:15;;;;;;;9.02;6.63;;;31.90;51.90;;;;;;5042105;28;20520;-62
2022/08/15 09:31:46;;;;;;;10.73;6.95;;;31.60;53.30;;;;;;5039310;28;20041;-62
2022/08/15 09:34:49;;;;;;;6.93;6.13;;;31.80;53.80;;;;;;5044034;28;20355;-62
2022/08/15 09:37:23;;;;;;;6.90;6.15;;;31.40;53.00;;;;;;5032816;28;20053;-62
2022/08/15 09:40:06;;;;;;;6.90;6.25;;;31.50;51.90;;;;;;5038338;28;20041;-63
2022/08/15 09:42:50;;;;;;;7.57;6.05;;;31.50;52.40;;;;;;5037275;28;20033;-63
2022/08/15 09:45:34;;;;;;;7.40;6.35;;;31.30;51.30;;;;;;5039693;28;20120;-63
2022/08/15 09:48:07;;;;;;;7.18;6.45;;;31.40;51.00;;;;;;5039353;28;20045;-61
2022/08/15 09:51:02;;;;;;;7.35;5.78;;;30.20;51.70;;;;;;5044094;28;20512;-62
2022/08/15 09:53:40;;;;;;;7.75;6.68;;;30.20;52.50;;;;;;5039710;28;20037;-63
2022/08/15 09:56:11;;;;;;;8.60;6.57;;;30.30;52.20;;;;;;5039506;28;20045;-62
2022/08/15 09:58:51;;;;;;;7.35;6.43;;;30.30;52.00;;;;;;5039712;28;20084;-62
2022/08/15 10:01:45;;;;;;;8.98;6.80;;;30.30;51.90;;;;;;5050588;28;20102;-61
2022/08/15 10:04:13;;;;;;;6.57;5.90;;;30.20;51.10;;;;;;5042091;28;20079;-62
2022/08/15 10:06:56;;;;;;;12.23;6.00;;;30.30;52.10;;;;;;5038726;28;20037;-62
2022/08/15 10:09:31;;;;;;;6.82;5.78;;;30.60;48.70;;;;;;5037629;28;20034;-62
2022/08/15 10:11:59;;;;;;;7.72;6.47;;;30.50;47.90;;;;;;5041868;28;20523;-62
2022/08/15 10:14:40;;;;;;;6.80;6.20;;;30.00;49.40;;;;;;5046076;28;20045;-62
2022/08/15 10:17:40;;;;;;;7.53;6.65;;;30.10;48.70;;;;;;5038107;28;20366;-62
2022/08/15 10:20:14;;;;;;;6.78;5.93;;;30.50;49.60;;;;;;5032390;28;20485;-62
2022/08/15 10:22:49;;;;;;;7.72;6.50;;;30.70;48.10;;;;;;5039968;28;20493;-62
2022/08/15 10:25:17;;;;;;;7.70;6.90;;;30.90;48.50;;;;;;5039073;28;20037;-63
2022/08/15 10:28:07;;;;;;;10.65;7.50;;;30.80;49.90;;;;;;5048454;28;20033;-63
2022/08/15 10:30:35;;;;;;;;;;;31.00;52.50;;;;;;5039635;28;20041;-62
2022/08/15 10:33:20;;;;;;;10.20;8.27;;;30.50;53.70;;;;;;5038941;28;19917;-62
2022/08/15 10:35:47;;;;;;;11.15;9.27;;;30.70;53.50;;;;;;5045754;28;20037;-62
2022/08/15 10:38:22;;;;;;;16.17;9.95;;;30.20;54.50;;;;;;5046528;28;20049;-61
2022/08/15 10:40:54;;;;;;;9.40;8.35;;;29.70;55.40;;;;;;5051916;28;20041;-63
2022/08/15 10:43:36;;;;;;;10.70;8.88;;;29.40;56.20;;;;;;5044296;28;20037;-62
2022/08/15 10:46:30;;;;;;;11.05;8.63;;;29.20;56.90;;;;;;5045027;28;20120;-62
2022/08/15 10:49:04;;;;;;;11.38;10.07;;;29.00;57.40;;;;;;5052022;28;20041;-62
2022/08/15 10:51:42;;;;;;;18.83;10.52;;;28.90;57.60;;;;;;5041869;28;20048;-61
2022/08/15 10:54:30;;;;;;;16.50;9.85;;;28.70;58.00;;;;;;5043614;28;20116;-62
2022/08/15 10:56:56;;;;;;;15.05;10.38;;;28.20;58.60;;;;;;5035698;28;20441;-62
2022/08/15 10:59:33;;;;;;;12.02;10.18;;;28.10;59.30;;;;;;5034280;28;20037;-63
2022/08/15 11:02:37;;;;;;;13.07;9.98;;;28.00;59.60;;;;;;5035458;28;20061;-62
2022/08/15 11:05:07;;;;;;;13.02;9.70;;;28.00;59.70;;;;;;5018658;28;20046;-61
2022/08/15 11:07:35;;;;;;;10.63;9.48;;;28.00;59.70;;;;;;5032156;28;20131;-61
2022/08/15 11:10:08;;;;;;;15.63;9.82;;;28.10;59.80;;;;;;5033470;28;20060;-62
2022/08/15 11:12:40;;;;;;;11.95;10.02;;;28.30;59.40;;;;;;5032473;28;20046;-61
2022/08/15 11:15:19;;;;;;;13.07;10.73;;;28.30;59.10;;;;;;5032110;28;20045;-62
2022/08/15 11:17:57;;;;;;;14.82;9.95;;;28.40;59.10;;;;;;5033425;28;20485;-62
2022/08/15 11:20:27;;;;;;;10.15;9.07;;;28.50;58.80;;;;;;5029119;28;20167;-62
2022/08/15 11:22:58;;;;;;;10.57;9.57;;;28.60;58.50;;;;;;5036798;28;20036;-62
2022/08/15 11:25:33;;;;;;;11.52;9.93;;;28.60;58.40;;;;;;5052815;28;20037;-62
2022/08/15 11:28:12;;;;;;;10.50;9.23;;;28.60;58.00;;;;;;5050635;28;20044;-62
2022/08/15 11:30:40;;;;;;;11.77;9.85;;;28.50;57.30;;;;;;5052046;28;20389;-62
2022/08/15 11:33:30;;;;;;;14.10;9.50;;;28.40;57.80;;;;;;5051745;28;20487;-62
2022/08/15 11:36:24;;;;;;;15.63;10.25;;;28.50;58.70;;;;;;5050487;28;20045;-62
2022/08/15 11:39:11;;;;;;;12.63;9.57;;;28.40;58.90;;;;;;5051430;28;20049;-62
2022/08/15 11:41:43;;;;;;;15.25;9.75;;;28.30;58.90;;;;;;5052094;28;20045;-61
2022/08/15 11:44:10;;;;;;;10.88;8.90;;;28.20;59.00;;;;;;5050994;28;20037;-62
2022/08/15 11:46:37;;;;;;;13.23;8.45;;;28.00;59.10;;;;;;5052138;28;20025;-62
2022/08/15 11:49:09;;;;;;;11.65;9.30;;;28.00;59.40;;;;;;5032458;28;20041;-62
2022/08/15 11:51:40;;;;;;;12.68;9.40;;;27.90;59.50;;;;;;5034953;28;20099;-62
2022/08/15 11:54:11;;;;;;;10.57;9.50;;;27.70;60.00;;;;;;5033766;28;20048;-63
2022/08/15 11:56:48;;;;;;;10.57;9.48;;;27.70;60.30;;;;;;5039742;28;20389;-62
2022/08/15 11:59:55;;;;;;;10.88;8.90;;;27.80;60.70;;;;;;5049840;28;20049;-62
2022/08/15 12:02:21;;;;;;;9.20;8.25;;;28.00;60.60;;;;;;5046023;28;20068;-62
2022/08/15 12:04:48;;;;;;;13.88;9.52;;;28.30;59.90;;;;;;5035511;28;20471;-61
2022/08/15 12:07:27;;;;;;;10.30;9.00;;;28.60;58.20;;;;;;5040766;28;20044;-62
2022/08/15 12:10:00;;;;;;;11.52;8.77;;;29.00;57.90;;;;;;5049334;28;20091;-63
2022/08/15 12:12:42;;;;;;;9.50;7.85;;;29.40;57.40;;;;;;5046544;28;20048;-62
2022/08/15 12:15:19;;;;;;;7.82;7.03;;;29.70;55.90;;;;;;5048509;28;20072;-61
2022/08/15 12:18:10;;;;;;;9.82;8.07;;;30.10;55.50;;;;;;5045051;28;20033;-62
2022/08/15 12:21:04;;;;;;;9.60;8.63;;;30.10;53.30;;;;;;5040384;28;20045;-62
2022/08/15 12:23:30;;;;;;;8.88;7.90;;;29.80;54.10;;;;;;5036773;28;20056;-63
2022/08/15 12:26:01;;;;;;;10.73;8.90;;;29.80;53.70;;;;;;5044820;28;20041;-62
2022/08/15 12:28:29;;;;;;;11.13;8.55;;;29.50;54.00;;;;;;5050769;28;20029;-62
2022/08/15 12:31:19;;;;;;;11.05;8.48;;;29.40;55.20;;;;;;5045336;28;20132;-62
2022/08/15 12:33:46;;;;;;;11.35;8.65;;;29.40;56.10;;;;;;5039035;28;20111;-62
2022/08/15 12:36:11;;;;;;;10.73;9.13;;;29.30;56.20;;;;;;5033391;28;20408;-62
2022/08/15 12:38:39;;;;;;;14.23;9.15;;;29.10;56.90;;;;;;5050687;28;20047;-62
2022/08/15 12:41:06;;;;;;;10.50;9.05;;;29.00;57.10;;;;;;5044155;28;20045;-63
2022/08/15 12:43:34;;;;;;;10.90;8.88;;;28.90;57.50;;;;;;5050983;28;20080;-62
2022/08/15 12:46:00;;;;;;;11.20;8.90;;;28.90;58.10;;;;;;5050013;28;20103;-62
2022/08/15 12:48:28;;;;;;;11.02;8.75;;;29.00;58.10;;;;;;5040265;28;20034;-62
2022/08/15 12:50:55;;;;;;;12.07;9.40;;;29.10;58.20;;;;;;5034950;28;20037;-62
2022/08/15 12:53:21;;;;;;;13.80;10.48;;;29.00;58.60;;;;;;5043547;28;20048;-62
2022/08/15 12:55:48;;;;;;;12.35;10.38;;;29.20;58.50;;;;;;5038467;28;20033;-62
2022/08/15 12:58:19;;;;;;;16.83;11.05;;;29.30;58.40;;;;;;5041553;28;21036;-61
2022/08/15 13:00:49;;;;;;;21.15;10.85;;;29.20;58.40;;;;;;5040652;28;20472;-62
2022/08/15 13:03:28;;;;;;;17.63;11.02;;;29.30;58.20;;;;;;5035919;28;20752;-62
2022/08/15 13:06:21;;;;;;;21.42;11.32;;;29.30;58.10;;;;;;5048410;28;20486;-62
2022/08/15 13:08:47;;;;;;;18.65;11.95;;;29.10;59.20;;;;;;5051713;28;20566;-62